createdAt,value
2023-03-20T00:00:31.779Z,95350.69
2023-03-20T00:02:59.692Z,95333.72
2023-03-20T00:05:29.976Z,95336.84
2023-03-20T00:07:59.612Z,95337.63
2023-03-20T00:10:34.046Z,95327.63
2023-03-20T00:13:02.642Z,95321.84
2023-03-20T00:15:33.325Z,95328.59
2023-03-20T00:18:01.308Z,95325.63
2023-03-20T00:20:31.564Z,95334.44
2023-03-20T00:23:00.836Z,95329.25
2023-03-20T00:25:29.205Z,95334.66
2023-03-20T00:27:57.106Z,95338.69
2023-03-20T00:30:29.435Z,95326.44
2023-03-20T00:32:58.989Z,95326.91
2023-03-20T00:35:30.399Z,95328.50
2023-03-20T00:38:00.479Z,95329.66
2023-03-20T00:40:31.763Z,95321.63
2023-03-20T00:43:01.972Z,95327.78
2023-03-20T00:45:33.005Z,95328.78
2023-03-20T00:48:01.804Z,95326.75
2023-03-20T00:50:31.957Z,95325.06
2023-03-20T00:53:01.119Z,95326.75
2023-03-20T00:55:30.727Z,95324.63
2023-03-20T00:58:00.590Z,95325.69
2023-03-20T01:00:37.655Z,95326.56
2023-03-20T01:03:13.154Z,95322.16
2023-03-20T01:05:41.343Z,95323.22
2023-03-20T01:08:18.313Z,95326.38
2023-03-20T01:10:47.893Z,95337.94
2023-03-20T01:13:21.548Z,95324.00
2023-03-20T01:15:50.689Z,95325.41
2023-03-20T01:18:20.079Z,95330.09
2023-03-20T01:20:48.332Z,95320.59
2023-03-20T01:23:17.573Z,95325.59
2023-03-20T01:25:45.717Z,95328.41
2023-03-20T01:28:16.981Z,95320.66
2023-03-20T01:30:46.582Z,95338.16
2023-03-20T01:33:16.596Z,95336.91
2023-03-20T01:35:46.470Z,95332.06
2023-03-20T01:38:16.502Z,95331.41
2023-03-20T01:40:53.903Z,95333.97
2023-03-20T01:43:23.285Z,95339.63
2023-03-20T01:46:00.419Z,95335.19
2023-03-20T01:48:57.063Z,95335.59
2023-03-20T01:51:27.458Z,95334.06
2023-03-20T01:54:01.624Z,95331.28
2023-03-20T01:56:34.318Z,95333.44
2023-03-20T01:59:07.935Z,95326.94
2023-03-20T02:01:36.810Z,95329.50
2023-03-20T02:04:05.755Z,95331.19
2023-03-20T02:06:47.343Z,95323.94
2023-03-20T02:09:19.322Z,95329.69
2023-03-20T02:11:50.567Z,95324.13
2023-03-20T02:14:21.693Z,95326.50
2023-03-20T02:17:03.483Z,95328.00
2023-03-20T02:19:51.537Z,95321.22
2023-03-20T02:22:55.339Z,95320.44
2023-03-20T02:25:47.295Z,95323.91
2023-03-20T02:28:47.538Z,95323.25
2023-03-20T02:31:37.815Z,95324.56
2023-03-20T02:34:43.907Z,95324.09
2023-03-20T02:37:40.548Z,95317.22
2023-03-20T02:40:22.128Z,95332.22
2023-03-20T02:42:59.516Z,95325.25
2023-03-20T02:45:30.123Z,95324.25
2023-03-20T02:48:21.061Z,95319.63
2023-03-20T02:50:55.133Z,95326.47
2023-03-20T02:53:35.997Z,95320.69
2023-03-20T02:56:13.288Z,95322.50
2023-03-20T02:58:47.383Z,95330.47
2023-03-20T03:01:20.975Z,95326.59
2023-03-20T03:03:53.522Z,95323.69
2023-03-20T03:06:26.177Z,95332.31
2023-03-20T03:09:02.251Z,95329.50
2023-03-20T03:11:31.803Z,95326.25
2023-03-20T03:14:00.275Z,95317.16
2023-03-20T03:16:32.397Z,95326.13
2023-03-20T03:19:08.512Z,95323.84
2023-03-20T03:21:39.592Z,95320.50
2023-03-20T03:24:39.185Z,95317.69
2023-03-20T03:27:14.848Z,95319.44
2023-03-20T03:29:44.074Z,95325.06
2023-03-20T03:32:24.731Z,95328.25
2023-03-20T03:34:53.108Z,95326.66
2023-03-20T03:37:27.851Z,95338.63
2023-03-20T03:40:11.774Z,95345.28
2023-03-20T03:42:43.008Z,95338.31
2023-03-20T03:45:15.149Z,95340.16
2023-03-20T03:47:47.391Z,95338.22
2023-03-20T03:50:20.438Z,95337.22
2023-03-20T03:52:52.537Z,95336.63
2023-03-20T03:55:25.874Z,95344.13
2023-03-20T03:58:06.002Z,95348.53
2023-03-20T04:00:36.536Z,95350.44
2023-03-20T04:03:08.177Z,95347.88
2023-03-20T04:05:39.093Z,95366.22
2023-03-20T04:08:07.533Z,95363.75
2023-03-20T04:10:36.688Z,95363.47
2023-03-20T04:13:04.695Z,95368.16
2023-03-20T04:15:32.589Z,95368.06
2023-03-20T04:18:00.591Z,95372.13
2023-03-20T04:20:28.444Z,95375.84
2023-03-20T04:22:56.308Z,95377.78
2023-03-20T04:25:27.453Z,95381.22
2023-03-20T04:27:58.107Z,95374.19
2023-03-20T04:30:54.139Z,95390.78
2023-03-20T04:33:51.424Z,95382.16
2023-03-20T04:36:45.549Z,95392.75
2023-03-20T04:39:15.488Z,95398.66
2023-03-20T04:41:43.362Z,95393.38
2023-03-20T04:44:13.205Z,95395.84
2023-03-20T04:46:43.914Z,95397.66
2023-03-20T04:49:16.719Z,95395.53
2023-03-20T04:51:44.835Z,95396.06
2023-03-20T04:54:15.335Z,95402.13
2023-03-20T04:56:44.123Z,95399.38
2023-03-20T04:59:17.339Z,95409.44
2023-03-20T05:01:45.430Z,95399.72
2023-03-20T05:04:13.413Z,95402.72
2023-03-20T05:06:41.703Z,95410.56
2023-03-20T05:09:09.735Z,95410.28
2023-03-20T05:11:38.558Z,95415.16
2023-03-20T05:14:06.748Z,95399.31
2023-03-20T05:17:05.470Z,95404.38
2023-03-20T05:19:57.295Z,95410.16
2023-03-20T05:22:39.704Z,95410.66
2023-03-20T05:25:13.416Z,95405.91
2023-03-20T05:28:06.232Z,95411.81
2023-03-20T05:30:54.363Z,95413.16
2023-03-20T05:33:38.409Z,95404.56
2023-03-20T05:36:41.456Z,95417.09
2023-03-20T05:39:29.504Z,95417.16
2023-03-20T05:42:16.631Z,95431.34
2023-03-20T05:45:02.933Z,95431.25
2023-03-20T05:47:46.000Z,95436.34
2023-03-20T05:50:26.504Z,95439.28
2023-03-20T05:53:17.227Z,95437.78
2023-03-20T05:55:50.821Z,95438.88
2023-03-20T05:58:38.948Z,95442.16
2023-03-20T06:01:42.226Z,95453.69
2023-03-20T06:04:23.239Z,95464.69
2023-03-20T06:07:12.698Z,95454.13
2023-03-20T06:09:43.648Z,95460.59
2023-03-20T06:12:14.309Z,95465.88
2023-03-20T06:14:42.334Z,95466.75
2023-03-20T06:17:10.816Z,95472.81
2023-03-20T06:19:41.359Z,95472.00
2023-03-20T06:22:09.345Z,95476.50
2023-03-20T06:24:38.469Z,95483.91
2023-03-20T06:27:07.223Z,95481.94
2023-03-20T06:29:35.500Z,95484.44
2023-03-20T06:32:17.360Z,95476.50
2023-03-20T06:34:47.657Z,95486.41
2023-03-20T06:37:15.913Z,95486.88
2023-03-20T06:39:45.296Z,95488.34
2023-03-20T06:42:16.262Z,95488.63
2023-03-20T06:44:45.923Z,95492.66
2023-03-20T06:47:24.998Z,95488.16
2023-03-20T06:49:52.825Z,95489.81
2023-03-20T06:52:22.728Z,95492.91
2023-03-20T06:55:10.871Z,95494.97
2023-03-20T06:57:39.293Z,95491.50
2023-03-20T07:00:33.202Z,95486.41
2023-03-20T07:03:04.754Z,95488.81
2023-03-20T07:05:34.009Z,95492.13
2023-03-20T07:08:05.466Z,95492.66
2023-03-20T07:10:35.428Z,95500.94
2023-03-20T07:13:03.325Z,95503.31
2023-03-20T07:15:32.381Z,95498.56
2023-03-20T07:18:01.400Z,95513.16
2023-03-20T07:20:29.396Z,95514.13
2023-03-20T07:22:57.333Z,95518.31
2023-03-20T07:25:41.326Z,95520.94
2023-03-20T07:28:11.772Z,95521.44
2023-03-20T07:30:42.903Z,95527.53
2023-03-20T07:33:11.558Z,95531.78
2023-03-20T07:35:40.444Z,95539.88
2023-03-20T07:38:08.973Z,95539.53
2023-03-20T07:40:45.910Z,95534.34
2023-03-20T07:43:18.483Z,95537.69
2023-03-20T07:46:10.201Z,95545.09
2023-03-20T07:48:39.724Z,95558.94
2023-03-20T07:51:08.037Z,95552.28
2023-03-20T07:53:35.961Z,95552.50
2023-03-20T07:56:05.582Z,95554.19
2023-03-20T07:58:34.854Z,95543.69
2023-03-20T08:01:04.071Z,95534.44
2023-03-20T08:03:32.414Z,95546.25
2023-03-20T08:06:01.747Z,95546.78
2023-03-20T08:08:29.780Z,95550.75
2023-03-20T08:10:57.563Z,95559.66
2023-03-20T08:13:25.394Z,95547.47
2023-03-20T08:15:54.615Z,95558.50
2023-03-20T08:18:22.539Z,95547.47
2023-03-20T08:20:50.871Z,95545.28
2023-03-20T08:23:20.750Z,95566.03
2023-03-20T08:25:49.943Z,95557.72
2023-03-20T08:28:18.819Z,95555.31
2023-03-20T08:30:47.187Z,95549.47
2023-03-20T08:33:17.406Z,95553.16
2023-03-20T08:35:45.665Z,95549.06
2023-03-20T08:38:14.692Z,95551.88
2023-03-20T08:40:42.737Z,95557.50
2023-03-20T08:43:10.779Z,95550.75
2023-03-20T08:45:38.894Z,95546.09
2023-03-20T08:48:06.931Z,95548.63
2023-03-20T08:50:36.292Z,95554.25
2023-03-20T08:53:04.270Z,95550.75
2023-03-20T08:55:32.112Z,95550.59
2023-03-20T08:58:00.483Z,95552.25
2023-03-20T09:00:28.713Z,95561.97
2023-03-20T09:02:56.790Z,95552.97
2023-03-20T09:05:25.089Z,95542.88
2023-03-20T09:07:54.376Z,95555.22
2023-03-20T09:10:22.462Z,95551.66
2023-03-20T09:12:50.243Z,95558.91
2023-03-20T09:15:18.193Z,95556.75
2023-03-20T09:17:45.978Z,95550.38
2023-03-20T09:20:13.818Z,95555.19
2023-03-20T09:22:43.764Z,95561.34
2023-03-20T09:25:13.587Z,95551.78
2023-03-20T09:27:41.355Z,95560.13
2023-03-20T09:30:11.466Z,95568.22
2023-03-20T09:32:39.442Z,95568.41
2023-03-20T09:35:07.846Z,95558.19
2023-03-20T09:37:36.477Z,95560.13
2023-03-20T09:40:05.665Z,95571.63
2023-03-20T09:42:48.854Z,95567.28
2023-03-20T09:45:22.305Z,95568.47
2023-03-20T09:48:01.454Z,95558.78
2023-03-20T09:50:37.474Z,95559.84
2023-03-20T09:53:12.256Z,95567.72
2023-03-20T09:55:43.117Z,95561.84
2023-03-20T09:58:18.171Z,95564.41
2023-03-20T10:00:47.683Z,95556.75
2023-03-20T10:03:22.444Z,95552.28
2023-03-20T10:05:57.065Z,95559.84
2023-03-20T10:08:29.875Z,95559.09
2023-03-20T10:11:07.671Z,95552.78
2023-03-20T10:13:57.009Z,95550.78
2023-03-20T10:16:35.983Z,95554.69
2023-03-20T10:19:11.881Z,95562.81
2023-03-20T10:21:44.502Z,95552.72
2023-03-20T10:24:20.628Z,95553.72
2023-03-20T10:26:53.486Z,95554.66
2023-03-20T10:29:34.749Z,95567.13
2023-03-20T10:32:09.228Z,95559.38
2023-03-20T10:34:55.055Z,95533.31
2023-03-20T10:37:39.266Z,95542.53
2023-03-20T10:40:26.806Z,95543.94
2023-03-20T10:42:58.463Z,95540.66
2023-03-20T10:45:40.475Z,95536.19
2023-03-20T10:48:17.220Z,95526.66
2023-03-20T10:50:48.737Z,95531.81
2023-03-20T10:53:27.551Z,95529.84
2023-03-20T10:55:59.506Z,95529.06
2023-03-20T10:58:31.096Z,95519.78
2023-03-20T11:01:00.970Z,95528.47
2023-03-20T11:03:31.928Z,95515.38
2023-03-20T11:06:09.791Z,95523.31
2023-03-20T11:08:42.044Z,95522.06
2023-03-20T11:11:11.381Z,95514.88
2023-03-20T11:13:41.502Z,95516.53
2023-03-20T11:16:20.708Z,95513.00
2023-03-20T11:18:50.481Z,95512.56
2023-03-20T11:21:21.440Z,95515.13
2023-03-20T11:23:50.393Z,95515.16
2023-03-20T11:26:20.046Z,95510.41
2023-03-20T11:28:51.232Z,95512.56
2023-03-20T11:31:26.852Z,95511.00
2023-03-20T11:34:12.402Z,95501.91
2023-03-20T11:37:02.644Z,95515.13
2023-03-20T11:39:38.136Z,95507.06
2023-03-20T11:42:23.937Z,95510.44
2023-03-20T11:44:59.485Z,95506.06
2023-03-20T11:47:32.264Z,95501.69
2023-03-20T11:50:01.712Z,95500.75
2023-03-20T11:52:33.431Z,95494.19
2023-03-20T11:55:04.186Z,95496.31
2023-03-20T11:57:37.177Z,95492.94
2023-03-20T12:00:36.288Z,95500.06
2023-03-20T12:03:29.494Z,95494.03
2023-03-20T12:06:01.137Z,95500.09
2023-03-20T12:08:32.710Z,95498.72
2023-03-20T12:11:04.579Z,95498.72
2023-03-20T12:13:36.558Z,95489.22
2023-03-20T12:16:07.985Z,95493.81
2023-03-20T12:18:42.260Z,95491.66
2023-03-20T12:21:16.496Z,95502.13
2023-03-20T12:23:48.713Z,95496.78
2023-03-20T12:26:21.337Z,95497.56
2023-03-20T12:28:54.871Z,95498.06
2023-03-20T12:31:27.345Z,95497.03
2023-03-20T12:34:02.291Z,95492.28
2023-03-20T12:36:33.792Z,95487.13
2023-03-20T12:39:04.127Z,95489.88
2023-03-20T12:41:41.257Z,95485.50
2023-03-20T12:44:29.660Z,95484.28
2023-03-20T12:47:07.126Z,95490.34
2023-03-20T12:49:50.100Z,95479.31
2023-03-20T12:52:28.750Z,95481.25
2023-03-20T12:55:15.413Z,95496.25
2023-03-20T12:57:56.622Z,95482.88
2023-03-20T13:00:33.048Z,95482.16
2023-03-20T13:03:11.708Z,95476.69
2023-03-20T13:05:49.734Z,95494.69
2023-03-20T13:08:32.533Z,95493.72
2023-03-20T13:11:06.794Z,95494.59
2023-03-20T13:13:42.860Z,95488.25
2023-03-20T13:16:21.235Z,95487.88
2023-03-20T13:18:59.884Z,95484.50
2023-03-20T13:21:36.722Z,95479.94
2023-03-20T13:24:25.692Z,95474.41
2023-03-20T13:27:03.940Z,95473.19
2023-03-20T13:29:43.029Z,95472.75
2023-03-20T13:32:18.738Z,95489.78
2023-03-20T13:35:08.356Z,95481.97
2023-03-20T13:37:42.193Z,95476.69
2023-03-20T13:40:17.944Z,95479.22
2023-03-20T13:42:53.036Z,95472.44
2023-03-20T13:45:32.060Z,95464.56
2023-03-20T13:48:05.623Z,95467.25
2023-03-20T13:50:41.633Z,95470.94
2023-03-20T13:53:20.875Z,95459.13
2023-03-20T13:55:56.090Z,95461.41
2023-03-20T13:58:45.558Z,95462.22
2023-03-20T14:01:23.203Z,95459.84
2023-03-20T14:03:52.480Z,95457.53
2023-03-20T14:06:49.686Z,95453.41
2023-03-20T14:09:31.840Z,95452.38
2023-03-20T14:12:06.289Z,95453.94
2023-03-20T14:14:41.485Z,95452.56
2023-03-20T14:17:19.071Z,95443.94
2023-03-20T14:19:47.984Z,95445.91
2023-03-20T14:22:18.574Z,95437.94
2023-03-20T14:24:54.913Z,95440.69
2023-03-20T14:27:42.742Z,95430.50
2023-03-20T14:30:40.776Z,95434.16
2023-03-20T14:33:24.621Z,95427.81
2023-03-20T14:36:11.220Z,95437.16
2023-03-20T14:38:48.339Z,95425.06
2023-03-20T14:41:25.395Z,95424.00
2023-03-20T14:44:02.010Z,95418.09
2023-03-20T14:46:41.326Z,95425.94
2023-03-20T14:49:25.302Z,95427.56
2023-03-20T14:51:58.213Z,95430.25
2023-03-20T14:54:29.402Z,95427.50
2023-03-20T14:57:10.605Z,95435.16
2023-03-20T14:59:38.878Z,95422.19
2023-03-20T15:02:06.659Z,95425.44
2023-03-20T15:04:39.050Z,95422.84
2023-03-20T15:07:15.589Z,95417.44
2023-03-20T15:09:46.507Z,95420.34
2023-03-20T15:12:20.140Z,95424.22
2023-03-20T15:14:54.241Z,95424.25
2023-03-20T15:17:24.111Z,95429.41
2023-03-20T15:19:51.965Z,95415.84
2023-03-20T15:22:21.817Z,95422.19
2023-03-20T15:24:54.057Z,95425.53
2023-03-20T15:27:26.058Z,95417.25
2023-03-20T15:29:56.387Z,95421.22
2023-03-20T15:32:24.819Z,95417.06
2023-03-20T15:34:53.047Z,95417.06
2023-03-20T15:37:23.954Z,95419.84
2023-03-20T15:39:55.448Z,95421.81
2023-03-20T15:42:27.620Z,95425.75
2023-03-20T15:44:56.899Z,95417.84
2023-03-20T15:47:26.097Z,95420.03
2023-03-20T15:49:56.039Z,95426.53
2023-03-20T15:52:30.322Z,95407.50
2023-03-20T15:55:00.012Z,95413.06
2023-03-20T15:57:35.606Z,95418.63
2023-03-20T16:00:06.696Z,95411.13
2023-03-20T16:02:37.118Z,95418.44
2023-03-20T16:05:06.338Z,95416.06
2023-03-20T16:07:34.488Z,95404.59
2023-03-20T16:10:02.651Z,95419.44
2023-03-20T16:12:32.897Z,95421.41
2023-03-20T16:15:00.875Z,95400.47
2023-03-20T16:17:29.041Z,95406.78
2023-03-20T16:19:57.144Z,95400.84
2023-03-20T16:22:27.633Z,95400.25
2023-03-20T16:24:58.194Z,95398.69
2023-03-20T16:27:29.908Z,95398.47
2023-03-20T16:29:59.445Z,95405.78
2023-03-20T16:32:35.481Z,95392.72
2023-03-20T16:35:06.909Z,95391.34
2023-03-20T16:37:43.160Z,95392.72
2023-03-20T16:40:17.229Z,95391.72
2023-03-20T16:42:45.865Z,95388.78
2023-03-20T16:45:25.891Z,95387.78
2023-03-20T16:48:27.224Z,95395.28
2023-03-20T16:51:04.254Z,95393.91
2023-03-20T16:53:39.102Z,95393.50
2023-03-20T16:56:12.724Z,95399.47
2023-03-20T16:58:41.513Z,95401.41
2023-03-20T17:01:18.906Z,95405.34
2023-03-20T17:03:53.271Z,95411.63
2023-03-20T17:06:38.936Z,95420.06
2023-03-20T17:09:19.684Z,95419.63
2023-03-20T17:11:50.585Z,95426.09
2023-03-20T17:14:18.727Z,95417.97
2023-03-20T17:16:47.931Z,95425.25
2023-03-20T17:19:17.716Z,95430.34
2023-03-20T17:21:46.911Z,95426.53
2023-03-20T17:24:16.562Z,95426.72
2023-03-20T17:26:47.448Z,95424.09
2023-03-20T17:29:15.469Z,95428.72
2023-03-20T17:31:43.387Z,95429.69
2023-03-20T17:34:14.813Z,95431.03
2023-03-20T17:36:43.040Z,95366.56
2023-03-20T17:39:16.493Z,95435.88
2023-03-20T17:41:44.312Z,95423.56
2023-03-20T17:44:12.143Z,95425.44
2023-03-20T17:46:56.258Z,95431.66
2023-03-20T17:49:28.270Z,95428.94
2023-03-20T17:51:56.786Z,95425.78
2023-03-20T17:54:24.611Z,95426.53
2023-03-20T17:56:52.432Z,95428.84
2023-03-20T17:59:20.266Z,95435.88
2023-03-20T18:01:48.123Z,95430.13
2023-03-20T18:04:16.113Z,95428.06
2023-03-20T18:06:47.774Z,95421.44
2023-03-20T18:09:16.127Z,95424.38
2023-03-20T18:11:46.647Z,95419.66
2023-03-20T18:14:18.005Z,95430.06
2023-03-20T18:16:46.562Z,95435.56
2023-03-20T18:19:23.197Z,95434.41
2023-03-20T18:21:52.472Z,95436.22
2023-03-20T18:24:20.373Z,95425.69
2023-03-20T18:26:48.289Z,95433.25
2023-03-20T18:29:16.487Z,95429.75
2023-03-20T18:31:44.571Z,95428.09
2023-03-20T18:34:12.425Z,95429.53
2023-03-20T18:36:40.296Z,95431.53
2023-03-20T18:39:09.478Z,95429.56
2023-03-20T18:41:37.436Z,95433.91
2023-03-20T18:44:05.392Z,95433.41
2023-03-20T18:46:33.274Z,95438.72
2023-03-20T18:49:01.211Z,95441.19
2023-03-20T18:51:29.081Z,95440.84
2023-03-20T18:53:56.920Z,95442.72
2023-03-20T18:56:28.330Z,95437.22
2023-03-20T18:58:56.218Z,95434.09
2023-03-20T19:01:24.231Z,95446.97
2023-03-20T19:03:53.728Z,95451.88
2023-03-20T19:06:23.290Z,95447.06
2023-03-20T19:08:51.905Z,95455.00
2023-03-20T19:11:21.548Z,95443.75
2023-03-20T19:13:53.081Z,95449.66
2023-03-20T19:16:24.459Z,95448.09
2023-03-20T19:18:53.324Z,95448.88
2023-03-20T19:21:26.094Z,95455.53
2023-03-20T19:23:54.613Z,95448.25
2023-03-20T19:26:24.425Z,95449.44
2023-03-20T19:28:54.771Z,95450.19
2023-03-20T19:31:23.044Z,95444.09
2023-03-20T19:33:51.840Z,95452.50
2023-03-20T19:36:26.884Z,95449.88
2023-03-20T19:38:55.864Z,95451.50
2023-03-20T19:41:24.241Z,95453.09
2023-03-20T19:43:55.485Z,95454.69
2023-03-20T19:46:39.092Z,95455.34
2023-03-20T19:49:07.709Z,95456.47
2023-03-20T19:51:36.006Z,95456.66
2023-03-20T19:54:04.137Z,95453.38
2023-03-20T19:56:34.504Z,95453.84
2023-03-20T19:59:05.724Z,95452.88
2023-03-20T20:01:33.796Z,95460.72
2023-03-20T20:04:01.667Z,95446.06
2023-03-20T20:06:32.649Z,95451.88
2023-03-20T20:09:01.426Z,95453.28
2023-03-20T20:11:29.699Z,95452.31
2023-03-20T20:14:07.682Z,95449.75
2023-03-20T20:16:42.487Z,95453.47
2023-03-20T20:19:10.671Z,95457.56
2023-03-20T20:24:27.177Z,95451.16
2023-03-20T20:27:15.813Z,95458.88
2023-03-20T20:29:47.887Z,95458.06
2023-03-20T20:32:18.270Z,95442.50
2023-03-20T20:38:30.989Z,95455.25
2023-03-20T20:40:26.363Z,95456.88
2023-03-20T20:43:01.382Z,95450.63
2023-03-20T20:45:31.640Z,95453.59
2023-03-20T20:48:01.950Z,95456.28
2023-03-20T20:50:32.464Z,95446.91
2023-03-20T20:53:00.881Z,95460.38
2023-03-20T20:55:28.739Z,95453.41
2023-03-20T20:57:56.647Z,95456.00
2023-03-20T21:00:40.979Z,95458.50
2023-03-20T21:03:15.825Z,95455.22
2023-03-20T21:05:43.929Z,95459.34
2023-03-20T21:08:14.162Z,95468.69
2023-03-20T21:10:42.434Z,95464.72
2023-03-20T21:13:10.680Z,95459.22
2023-03-20T21:15:39.468Z,95460.72
2023-03-20T21:18:07.617Z,95456.16
2023-03-20T21:20:37.319Z,95460.00
2023-03-20T21:23:05.272Z,95458.59
2023-03-20T21:25:44.802Z,95460.00
2023-03-20T21:28:14.211Z,95461.63
2023-03-20T21:30:56.427Z,95466.47
2023-03-20T21:33:31.210Z,95458.75
2023-03-20T21:36:00.653Z,95454.16
2023-03-20T21:41:17.145Z,95445.75
2023-03-20T21:43:47.124Z,95456.41
2023-03-20T21:58:21.412Z,95451.53
2023-03-20T22:04:06.349Z,95452.97
2023-03-20T22:12:38.415Z,95462.78
2023-03-20T22:15:31.536Z,95461.13
2023-03-20T22:18:12.010Z,95455.56
2023-03-20T22:21:15.671Z,95453.53
2023-03-20T22:23:54.870Z,95449.38
2023-03-20T22:26:56.558Z,95459.53
2023-03-20T22:29:35.801Z,95448.44
2023-03-20T22:40:53.599Z,95454.16
2023-03-20T22:46:03.440Z,95451.25
2023-03-20T22:48:33.677Z,95446.38
2023-03-20T22:51:01.762Z,95450.41
2023-03-20T22:53:30.968Z,95447.88
2023-03-20T22:55:58.982Z,95441.91
2023-03-20T22:58:28.272Z,95442.53
2023-03-20T23:00:57.165Z,95447.81
2023-03-20T23:03:40.361Z,95439.34
2023-03-20T23:06:11.101Z,95447.88
2023-03-20T23:08:48.937Z,95444.53
2023-03-20T23:11:20.551Z,95437.13
2023-03-20T23:13:50.196Z,95430.59
2023-03-20T23:16:18.420Z,95439.34
2023-03-20T23:18:46.373Z,95436.09
2023-03-20T23:21:14.271Z,95437.47
2023-03-20T23:23:42.096Z,95442.81
2023-03-20T23:26:11.927Z,95432.69
2023-03-20T23:28:40.636Z,95430.88
2023-03-20T23:31:12.251Z,95431.41
2023-03-20T23:33:40.636Z,95430.06
2023-03-20T23:36:19.020Z,95425.41
2023-03-20T23:38:52.730Z,95420.34
2023-03-20T23:41:20.751Z,95426.25
2023-03-20T23:43:50.599Z,95421.81
2023-03-20T23:46:21.473Z,95419.47
2023-03-20T23:48:49.279Z,95424.75
2023-03-20T23:51:17.179Z,95426.28
2023-03-20T23:53:44.969Z,95418.84
2023-03-20T23:56:13.651Z,95419.03
2023-03-20T23:58:47.587Z,95417.06
